BKK weather

Suvarnabhumi Airport
Bangkok, Bangkok Province, Thailand

Public forecast

Using degrees Celsius for public forecast. Weather courtesy of forecast.io.

METAR (pilot weather report)

Retrieved 2019/03/24 14:30 UTC (22 minutes ago):

VTBS 241430Z 11007KT 070V140 8000 FEW030 29/23 Q1010 NOSIG

TAF (pilot weather forecast)

Retrieved 2019/03/24 12:00 UTC (3 hours ago):

TAF VTBS 241100Z 2412/2518 20008KT 9999 FEW020 TEMPO 2422/2502 14010KT 6000 -TSRA FEW018CB SCT030